createdAt,value
2023-05-19T00:00:07.013Z,94974.00
2023-05-19T00:01:07.046Z,94974.00
2023-05-19T00:02:07.105Z,94972.00
2023-05-19T00:03:07.185Z,94972.00
2023-05-19T00:04:07.185Z,94972.00
2023-05-19T00:05:07.228Z,94972.00
2023-05-19T00:06:07.387Z,94970.00
2023-05-19T00:07:07.341Z,94968.00
2023-05-19T00:08:07.390Z,94968.00
2023-05-19T00:09:07.441Z,94970.00
2023-05-19T00:10:07.489Z,94968.00
2023-05-19T00:11:07.528Z,94968.00
2023-05-19T00:12:07.568Z,94968.00
2023-05-19T00:13:07.609Z,94968.00
2023-05-19T00:14:07.668Z,94968.00
2023-05-19T00:15:07.709Z,94970.00
2023-05-19T00:16:07.779Z,94968.00
2023-05-19T00:17:07.814Z,94968.00
2023-05-19T00:18:07.905Z,94968.00
2023-05-19T00:19:08.017Z,94968.00
2023-05-19T00:20:07.939Z,94970.00
2023-05-19T00:21:07.990Z,94966.00
2023-05-19T00:22:08.043Z,94968.00
2023-05-19T00:23:08.115Z,94968.00
2023-05-19T00:24:08.149Z,94968.00
2023-05-19T00:25:08.178Z,94968.00
2023-05-19T00:26:08.210Z,94970.00
2023-05-19T00:27:08.266Z,94970.00
2023-05-19T00:28:08.321Z,94970.00
2023-05-19T00:29:08.375Z,94966.00
2023-05-19T00:30:08.406Z,94968.00
2023-05-19T00:31:08.455Z,94970.00
2023-05-19T00:32:08.627Z,94968.00
2023-05-19T00:33:08.589Z,94972.00
2023-05-19T00:34:08.593Z,94970.00
2023-05-19T00:35:08.640Z,94970.00
2023-05-19T00:36:08.692Z,94970.00
2023-05-19T00:37:08.736Z,94968.00
2023-05-19T00:38:08.780Z,94968.00
2023-05-19T00:39:08.829Z,94970.00
2023-05-19T00:40:08.864Z,94968.00
2023-05-19T00:41:08.915Z,94966.00
2023-05-19T00:42:08.959Z,94966.00
2023-05-19T00:43:09.013Z,94966.00
2023-05-19T00:44:09.053Z,94966.00
2023-05-19T00:45:09.130Z,94966.00
2023-05-19T00:46:09.196Z,94963.00
2023-05-19T00:47:09.261Z,94963.00
2023-05-19T00:48:09.427Z,94963.00
2023-05-19T00:49:09.325Z,94964.00
2023-05-19T00:50:09.335Z,94963.00
2023-05-19T00:51:09.384Z,94961.00
2023-05-19T00:52:09.430Z,94959.00
2023-05-19T00:53:09.467Z,94957.00
2023-05-19T00:54:09.516Z,94961.00
2023-05-19T00:55:09.575Z,94961.00
2023-05-19T00:56:09.611Z,94957.00
2023-05-19T00:57:09.655Z,94961.00
2023-05-19T00:58:09.718Z,94961.00
2023-05-19T00:59:09.765Z,94959.00
2023-05-19T01:00:09.903Z,94959.00
2023-05-19T01:01:09.949Z,94961.00
2023-05-19T01:02:09.893Z,94959.00
2023-05-19T01:03:10.025Z,94959.00
2023-05-19T01:04:10.134Z,94959.00
2023-05-19T01:05:10.042Z,94961.00
2023-05-19T01:06:10.080Z,94957.00
2023-05-19T01:07:10.115Z,94957.00
2023-05-19T01:08:10.167Z,94957.00
2023-05-19T01:09:10.211Z,94955.00
2023-05-19T01:10:10.260Z,94955.00
2023-05-19T01:11:10.324Z,94953.00
2023-05-19T01:12:10.356Z,94955.00
2023-05-19T01:13:10.404Z,94953.00
2023-05-19T01:14:10.463Z,94953.00
2023-05-19T01:15:10.496Z,94953.00
2023-05-19T01:16:10.596Z,94953.00
2023-05-19T01:17:10.597Z,94953.00
2023-05-19T01:18:10.682Z,94955.00
2023-05-19T01:19:10.824Z,94955.00
2023-05-19T01:20:10.732Z,94955.00
2023-05-19T01:21:10.786Z,94955.00
2023-05-19T01:22:10.816Z,94955.00
2023-05-19T01:23:10.877Z,94953.00
2023-05-19T01:24:10.951Z,94953.00
2023-05-19T01:25:10.951Z,94953.00
2023-05-19T01:26:11.014Z,94953.00
2023-05-19T01:27:11.066Z,94953.00
2023-05-19T01:28:11.121Z,94953.00
2023-05-19T01:29:11.165Z,94951.00
2023-05-19T01:30:11.216Z,94951.00
2023-05-19T01:31:11.267Z,94951.00
2023-05-19T01:32:11.379Z,94951.00
2023-05-19T01:33:11.372Z,94953.00
2023-05-19T01:34:11.428Z,94953.00
2023-05-19T01:35:11.469Z,94953.00
2023-05-19T01:36:11.525Z,94949.00
2023-05-19T01:37:11.603Z,94951.00
2023-05-19T01:38:11.620Z,94953.00
2023-05-19T01:39:11.690Z,94953.00
2023-05-19T01:40:11.734Z,94953.00
2023-05-19T01:41:11.782Z,94955.00
2023-05-19T01:42:11.832Z,94955.00
2023-05-19T01:43:11.897Z,94957.00
2023-05-19T01:44:11.937Z,94957.00
2023-05-19T01:45:11.985Z,94957.00
2023-05-19T01:46:12.133Z,94957.00
2023-05-19T01:47:12.114Z,94957.00
2023-05-19T01:48:12.271Z,94955.00
2023-05-19T01:49:12.205Z,94955.00
2023-05-19T01:50:12.259Z,94951.00
2023-05-19T01:51:12.323Z,94949.00
2023-05-19T01:52:12.375Z,94955.00
2023-05-19T01:53:12.428Z,94955.00
2023-05-19T01:54:12.485Z,94953.00
2023-05-19T01:55:12.535Z,94953.00
2023-05-19T01:56:12.606Z,94957.00
2023-05-19T01:57:12.644Z,94951.00
2023-05-19T01:58:12.706Z,94957.00
2023-05-19T01:59:12.753Z,94959.00
2023-05-19T02:00:12.806Z,94951.00
2023-05-19T02:01:12.927Z,94957.00
2023-05-19T02:02:12.920Z,94959.00
2023-05-19T02:03:12.971Z,94959.00
2023-05-19T02:04:13.069Z,94953.00
2023-05-19T02:05:13.080Z,94959.00
2023-05-19T02:06:13.126Z,94959.00
2023-05-19T02:07:13.176Z,94959.00
2023-05-19T02:08:13.243Z,94959.00
2023-05-19T02:09:13.290Z,94959.00
2023-05-19T02:10:13.345Z,94961.00
2023-05-19T02:11:13.412Z,94959.00
2023-05-19T02:12:13.484Z,94959.00
2023-05-19T02:13:13.501Z,94959.00
2023-05-19T02:14:13.571Z,94959.00
2023-05-19T02:15:13.605Z,94959.00
2023-05-19T02:16:13.705Z,94964.00
2023-05-19T02:17:13.702Z,94959.00
2023-05-19T02:18:13.751Z,94959.00
2023-05-19T02:19:13.866Z,94959.00
2023-05-19T02:20:13.829Z,94959.00
2023-05-19T02:21:13.868Z,94959.00
2023-05-19T02:22:13.937Z,94959.00
2023-05-19T02:23:13.984Z,94957.00
2023-05-19T02:24:14.027Z,94959.00
2023-05-19T02:25:14.081Z,94959.00
2023-05-19T02:26:14.146Z,94957.00
2023-05-19T02:27:14.189Z,94957.00
2023-05-19T02:28:14.242Z,94955.00
2023-05-19T02:29:14.294Z,94959.00
2023-05-19T02:30:14.335Z,94955.00
2023-05-19T02:31:14.385Z,94957.00
2023-05-19T02:32:14.502Z,94957.00
2023-05-19T02:33:14.604Z,94955.00
2023-05-19T02:34:14.561Z,94957.00
2023-05-19T02:35:14.613Z,94959.00
2023-05-19T02:36:14.665Z,94959.00
2023-05-19T02:37:14.695Z,94959.00
2023-05-19T02:38:14.744Z,94961.00
2023-05-19T02:39:14.804Z,94961.00
2023-05-19T02:40:14.858Z,94961.00
2023-05-19T02:41:14.918Z,94959.00
2023-05-19T02:42:14.983Z,94959.00
2023-05-19T02:43:15.028Z,94957.00
2023-05-19T02:44:15.099Z,94957.00
2023-05-19T02:45:15.130Z,94957.00
2023-05-19T02:46:15.201Z,94957.00
2023-05-19T02:47:15.237Z,94959.00
2023-05-19T02:48:15.338Z,94959.00
2023-05-19T02:49:15.353Z,94959.00
2023-05-19T02:50:15.398Z,94957.00
2023-05-19T02:51:15.452Z,94955.00
2023-05-19T02:52:15.592Z,94955.00
2023-05-19T02:53:15.558Z,94955.00
2023-05-19T02:54:15.601Z,94957.00
2023-05-19T02:55:15.638Z,94957.00
2023-05-19T02:56:15.675Z,94957.00
2023-05-19T02:57:15.691Z,94951.00
2023-05-19T02:58:15.738Z,94955.00
2023-05-19T02:59:15.815Z,94951.00
2023-05-19T03:00:15.840Z,94953.00
2023-05-19T03:01:15.918Z,94949.00
2023-05-19T03:02:16.024Z,94947.00
2023-05-19T03:03:16.125Z,94945.00
2023-05-19T03:04:16.012Z,94945.00
2023-05-19T03:05:16.070Z,94945.00
2023-05-19T03:06:16.116Z,94945.00
2023-05-19T03:07:16.180Z,94945.00
2023-05-19T03:08:16.331Z,94947.00
2023-05-19T03:09:16.278Z,94945.00
2023-05-19T03:10:16.331Z,94941.00
2023-05-19T03:11:16.399Z,94943.00
2023-05-19T03:12:16.455Z,94941.00
2023-05-19T03:13:16.506Z,94943.00
2023-05-19T03:14:16.595Z,94945.00
2023-05-19T03:15:16.598Z,94941.00
2023-05-19T03:16:16.731Z,94941.00
2023-05-19T03:17:16.767Z,94941.00
2023-05-19T03:18:16.841Z,94939.00
2023-05-19T03:19:16.880Z,94943.00
2023-05-19T03:20:16.866Z,94943.00
2023-05-19T03:21:16.925Z,94941.00
2023-05-19T03:22:16.984Z,94939.00
2023-05-19T03:23:17.025Z,94939.00
2023-05-19T03:24:17.085Z,94941.00
2023-05-19T03:25:17.142Z,94939.00
2023-05-19T03:26:17.219Z,94937.00
2023-05-19T03:27:17.243Z,94937.00
2023-05-19T03:28:17.319Z,94939.00
2023-05-19T03:29:17.371Z,94939.00
2023-05-19T03:30:17.405Z,94939.00
2023-05-19T03:31:17.470Z,94941.00
2023-05-19T03:32:17.618Z,94939.00
2023-05-19T03:33:17.611Z,94937.00
2023-05-19T03:34:17.640Z,94937.00
2023-05-19T03:35:17.654Z,94937.00
2023-05-19T03:36:17.719Z,94937.00
2023-05-19T03:37:17.774Z,94937.00
2023-05-19T03:38:17.863Z,94935.00
2023-05-19T03:39:17.893Z,94937.00
2023-05-19T03:40:17.949Z,94937.00
2023-05-19T03:41:18.011Z,94935.00
2023-05-19T03:42:18.050Z,94933.00
2023-05-19T03:43:18.104Z,94935.00
2023-05-19T03:44:18.166Z,94933.00
2023-05-19T03:45:18.224Z,94933.00
2023-05-19T03:46:18.327Z,94933.00
2023-05-19T03:47:18.337Z,94933.00
2023-05-19T03:48:21.110Z,94931.00
2023-05-19T03:49:18.397Z,94931.00
2023-05-19T03:50:18.387Z,94933.00
2023-05-19T03:51:18.394Z,94931.00
2023-05-19T03:52:18.369Z,94933.00
2023-05-19T03:53:18.387Z,94935.00
2023-05-19T03:54:18.352Z,94935.00
2023-05-19T03:55:18.387Z,94935.00
2023-05-19T03:56:18.342Z,94937.00
2023-05-19T03:57:18.328Z,94937.00
2023-05-19T03:58:18.319Z,94937.00
2023-05-19T03:59:18.319Z,94943.00
2023-05-19T04:00:18.326Z,94943.00
2023-05-19T04:01:18.298Z,94941.00
2023-05-19T04:02:18.334Z,94943.00
2023-05-19T04:03:18.452Z,94941.00
2023-05-19T04:04:18.328Z,94939.00
2023-05-19T04:05:18.275Z,94939.00
2023-05-19T04:06:18.265Z,94937.00
2023-05-19T04:07:18.249Z,94937.00
2023-05-19T04:08:18.280Z,94935.00
2023-05-19T04:09:18.238Z,94935.00
2023-05-19T04:10:18.241Z,94933.00
2023-05-19T04:11:18.230Z,94933.00
2023-05-19T04:12:18.250Z,94933.00
2023-05-19T04:13:18.217Z,94931.00
2023-05-19T04:14:18.201Z,94933.00
2023-05-19T04:15:18.209Z,94935.00
2023-05-19T04:16:18.269Z,94935.00
2023-05-19T04:17:18.192Z,94935.00
2023-05-19T04:18:18.189Z,94933.00
2023-05-19T04:19:18.205Z,94937.00
2023-05-19T04:20:18.156Z,94937.00
2023-05-19T04:21:18.158Z,94937.00
2023-05-19T04:22:18.156Z,94937.00
2023-05-19T04:23:18.139Z,94935.00
2023-05-19T04:24:18.152Z,94941.00
2023-05-19T04:25:18.127Z,94937.00
2023-05-19T04:26:18.139Z,94941.00
2023-05-19T04:27:18.146Z,94941.00
2023-05-19T04:28:18.156Z,94939.00
2023-05-19T04:29:18.675Z,94939.00
2023-05-19T04:30:18.805Z,94943.00
2023-05-19T04:31:18.343Z,94941.00
2023-05-19T04:32:18.354Z,94943.00
2023-05-19T04:33:18.380Z,94941.00
2023-05-19T04:34:18.419Z,94945.00
2023-05-19T04:35:18.453Z,94943.00
2023-05-19T04:36:18.501Z,94947.00
2023-05-19T04:37:18.548Z,94947.00
2023-05-19T04:38:18.568Z,94949.00
2023-05-19T04:39:18.575Z,94947.00
2023-05-19T04:40:18.556Z,94951.00
2023-05-19T04:41:18.580Z,94949.00
2023-05-19T04:42:18.626Z,94949.00
2023-05-19T04:43:18.700Z,94953.00
2023-05-19T04:44:18.760Z,94949.00
2023-05-19T04:45:18.759Z,94949.00
2023-05-19T04:46:18.817Z,94949.00
2023-05-19T04:47:18.809Z,94949.00
2023-05-19T04:48:18.815Z,94951.00
2023-05-19T04:49:18.817Z,94947.00
2023-05-19T04:50:18.813Z,94947.00
2023-05-19T04:51:18.821Z,94945.00
2023-05-19T04:52:18.818Z,94943.00
2023-05-19T04:53:18.840Z,94943.00
2023-05-19T04:54:18.833Z,94945.00
2023-05-19T04:55:18.825Z,94945.00
2023-05-19T04:56:18.828Z,94943.00
2023-05-19T04:57:18.832Z,94945.00
2023-05-19T04:58:18.859Z,94947.00
2023-05-19T04:59:18.862Z,94949.00
2023-05-19T05:00:18.901Z,94947.00
2023-05-19T05:01:18.966Z,94947.00
2023-05-19T05:02:19.064Z,94949.00
2023-05-19T05:03:19.068Z,94949.00
2023-05-19T05:04:19.027Z,94945.00
2023-05-19T05:05:19.080Z,94945.00
2023-05-19T05:06:19.104Z,94943.00
2023-05-19T05:07:19.149Z,94945.00
2023-05-19T05:08:19.208Z,94947.00
2023-05-19T05:09:19.295Z,94943.00
2023-05-19T05:10:19.341Z,94943.00
2023-05-19T05:11:19.398Z,94943.00
2023-05-19T05:12:19.442Z,94945.00
2023-05-19T05:13:19.508Z,94943.00
2023-05-19T05:14:19.583Z,94945.00
2023-05-19T05:15:19.596Z,94947.00
2023-05-19T05:16:19.676Z,94947.00
2023-05-19T05:17:19.666Z,94949.00
2023-05-19T05:18:19.721Z,94945.00
2023-05-19T05:19:19.787Z,94945.00
2023-05-19T05:20:19.813Z,94945.00
2023-05-19T05:21:19.880Z,94943.00
2023-05-19T05:22:19.925Z,94947.00
2023-05-19T05:23:19.985Z,94947.00
2023-05-19T05:24:20.048Z,94951.00
2023-05-19T05:25:20.089Z,94951.00
2023-05-19T05:26:20.152Z,94947.00
2023-05-19T05:27:20.201Z,94945.00
2023-05-19T05:28:20.233Z,94947.00
2023-05-19T05:29:20.272Z,94947.00
2023-05-19T05:30:20.302Z,94947.00
2023-05-19T05:31:20.308Z,94947.00
2023-05-19T05:32:20.322Z,94947.00
2023-05-19T05:33:20.474Z,94949.00
2023-05-19T05:34:20.373Z,94951.00
2023-05-19T05:35:20.413Z,94947.00
2023-05-19T05:36:20.480Z,94943.00
2023-05-19T05:37:20.516Z,94941.00
2023-05-19T05:38:20.551Z,94941.00
2023-05-19T05:39:20.658Z,94939.00
2023-05-19T05:40:20.636Z,94941.00
2023-05-19T05:41:20.683Z,94939.00
2023-05-19T05:42:20.708Z,94941.00
2023-05-19T05:43:20.740Z,94941.00
2023-05-19T05:44:20.772Z,94945.00
2023-05-19T05:45:20.820Z,94945.00
2023-05-19T05:46:20.888Z,94947.00
2023-05-19T05:47:20.900Z,94947.00
2023-05-19T05:48:20.991Z,94945.00
2023-05-19T05:49:20.956Z,94943.00
2023-05-19T05:50:21.012Z,94941.00
2023-05-19T05:51:21.083Z,94939.00
2023-05-19T05:52:21.118Z,94939.00
2023-05-19T05:53:21.179Z,94939.00
2023-05-19T05:54:21.228Z,94941.00
2023-05-19T05:55:21.292Z,94943.00
2023-05-19T05:56:21.360Z,94939.00
2023-05-19T05:57:21.410Z,94941.00
2023-05-19T05:58:21.465Z,94943.00
2023-05-19T05:59:21.554Z,94945.00
2023-05-19T06:00:21.598Z,94947.00
2023-05-19T06:01:21.656Z,94941.00
2023-05-19T06:02:21.716Z,94941.00
2023-05-19T06:03:21.942Z,94941.00
2023-05-19T06:04:21.756Z,94943.00
2023-05-19T06:05:21.783Z,94945.00
2023-05-19T06:06:21.793Z,94943.00
2023-05-19T06:07:21.844Z,94939.00
2023-05-19T06:08:21.834Z,94939.00
2023-05-19T06:09:21.807Z,94935.00
2023-05-19T06:10:21.820Z,94939.00
2023-05-19T06:11:21.827Z,94939.00
2023-05-19T06:12:21.840Z,94939.00
2023-05-19T06:13:21.840Z,94941.00
2023-05-19T06:14:21.851Z,94941.00
2023-05-19T06:15:21.851Z,94941.00
2023-05-19T06:16:21.893Z,94939.00
2023-05-19T06:17:21.876Z,94941.00
2023-05-19T06:18:21.900Z,94941.00
2023-05-19T06:19:22.093Z,94939.00
2023-05-19T06:20:22.012Z,94945.00
2023-05-19T06:21:22.084Z,94945.00
2023-05-19T06:22:22.105Z,94943.00
2023-05-19T06:23:22.183Z,94943.00
2023-05-19T06:24:22.200Z,94943.00
2023-05-19T06:25:22.304Z,94941.00
2023-05-19T06:26:22.326Z,94941.00
2023-05-19T06:27:22.378Z,94941.00
2023-05-19T06:28:22.428Z,94933.00
2023-05-19T06:29:22.484Z,94933.00
2023-05-19T06:30:22.540Z,94933.00
2023-05-19T06:31:22.697Z,94935.00
2023-05-19T06:32:22.722Z,94935.00
2023-05-19T06:33:22.794Z,94937.00
2023-05-19T06:34:22.769Z,94939.00
2023-05-19T06:35:22.832Z,94933.00
2023-05-19T06:36:22.918Z,94933.00
2023-05-19T06:37:22.947Z,94933.00
2023-05-19T06:38:22.989Z,94935.00
2023-05-19T06:39:23.040Z,94935.00
2023-05-19T06:40:23.067Z,94937.00
2023-05-19T06:41:23.110Z,94931.00
2023-05-19T06:42:23.173Z,94933.00
2023-05-19T06:43:23.240Z,94931.00
2023-05-19T06:44:23.283Z,94931.00
2023-05-19T06:45:23.317Z,94929.00
2023-05-19T06:46:23.506Z,94931.00
2023-05-19T06:47:23.527Z,94935.00
2023-05-19T06:48:23.499Z,94935.00
2023-05-19T06:49:23.601Z,94933.00
2023-05-19T06:50:23.634Z,94931.00
2023-05-19T06:51:23.702Z,94931.00
2023-05-19T06:52:23.764Z,94931.00
2023-05-19T06:53:23.812Z,94931.00
2023-05-19T06:54:23.878Z,94929.00
2023-05-19T06:55:23.933Z,94929.00
2023-05-19T06:56:23.990Z,94927.00
2023-05-19T06:57:24.075Z,94927.00
2023-05-19T06:58:24.122Z,94931.00
2023-05-19T06:59:24.173Z,94927.00
2023-05-19T07:00:24.331Z,94925.00
2023-05-19T07:01:24.316Z,94929.00
2023-05-19T07:02:24.370Z,94927.00
2023-05-19T07:03:24.513Z,94929.00
2023-05-19T07:04:24.513Z,94931.00
2023-05-19T07:05:24.556Z,94929.00
2023-05-19T07:06:24.640Z,94929.00
2023-05-19T07:07:24.684Z,94929.00
2023-05-19T07:08:24.782Z,94925.00
2023-05-19T07:09:24.820Z,94927.00
2023-05-19T07:10:24.865Z,94927.00
2023-05-19T07:11:24.951Z,94927.00
2023-05-19T07:12:24.990Z,94927.00
2023-05-19T07:13:27.320Z,94925.00
2023-05-19T07:14:25.245Z,94927.00
2023-05-19T07:15:25.285Z,94925.00
2023-05-19T07:16:25.401Z,94923.00
2023-05-19T07:17:25.429Z,94923.00
2023-05-19T07:18:25.431Z,94921.00
2023-05-19T07:19:25.585Z,94921.00
2023-05-19T07:20:25.529Z,94917.00
2023-05-19T07:21:25.626Z,94917.00
2023-05-19T07:22:25.661Z,94917.00
2023-05-19T07:23:25.720Z,94916.00
2023-05-19T07:24:25.771Z,94912.00
2023-05-19T07:25:25.843Z,94917.00
2023-05-19T07:26:25.873Z,94914.00
2023-05-19T07:27:25.947Z,94912.00
2023-05-19T07:28:26.009Z,94906.00
2023-05-19T07:29:26.112Z,94906.00
2023-05-19T07:30:26.202Z,94904.00
2023-05-19T07:31:26.231Z,94902.00
2023-05-19T07:32:26.352Z,94902.00
2023-05-19T07:33:26.296Z,94902.00
2023-05-19T07:34:26.401Z,94900.00
2023-05-19T07:35:26.420Z,94900.00
2023-05-19T07:36:26.461Z,94900.00
2023-05-19T07:37:26.531Z,94900.00
2023-05-19T07:38:26.568Z,94898.00
2023-05-19T07:39:26.639Z,94900.00
2023-05-19T07:40:26.846Z,94900.00
2023-05-19T07:41:26.782Z,94898.00
2023-05-19T07:42:26.832Z,94898.00
2023-05-19T07:43:26.870Z,94896.00
2023-05-19T07:44:26.939Z,94894.00
2023-05-19T07:45:26.993Z,94884.00
2023-05-19T07:46:27.090Z,94886.00
2023-05-19T07:47:27.130Z,94886.00
2023-05-19T07:48:27.205Z,94884.00
2023-05-19T07:49:27.232Z,94886.00
2023-05-19T07:50:27.304Z,94884.00
2023-05-19T07:51:27.342Z,94886.00
2023-05-19T07:52:27.413Z,94880.00
2023-05-19T07:53:27.473Z,94878.00
2023-05-19T07:54:27.576Z,94880.00
2023-05-19T07:55:27.557Z,94878.00
2023-05-19T07:56:27.740Z,94878.00
2023-05-19T07:57:27.633Z,94880.00
2023-05-19T07:58:27.705Z,94880.00
2023-05-19T07:59:27.772Z,94878.00
2023-05-19T08:00:27.825Z,94878.00
2023-05-19T08:01:27.871Z,94876.00
2023-05-19T08:02:28.029Z,94876.00
2023-05-19T08:03:28.119Z,94878.00
2023-05-19T08:04:28.097Z,94874.00
2023-05-19T08:05:28.114Z,94874.00
2023-05-19T08:06:28.186Z,94874.00
2023-05-19T08:07:28.259Z,94872.00
2023-05-19T08:08:28.305Z,94872.00
2023-05-19T08:09:28.368Z,94876.00
2023-05-19T08:10:28.440Z,94874.00
2023-05-19T08:11:28.514Z,94872.00
2023-05-19T08:12:28.533Z,94872.00
2023-05-19T08:13:28.593Z,94872.00
2023-05-19T08:14:28.657Z,94872.00
2023-05-19T08:15:28.764Z,94872.00
2023-05-19T08:16:28.892Z,94871.00
2023-05-19T08:17:28.923Z,94869.00
2023-05-19T08:18:28.925Z,94867.00
2023-05-19T08:19:29.017Z,94867.00
2023-05-19T08:20:29.032Z,94867.00
2023-05-19T08:21:29.086Z,94867.00
2023-05-19T08:22:29.163Z,94867.00
2023-05-19T08:23:29.183Z,94869.00
2023-05-19T08:24:29.245Z,94867.00
2023-05-19T08:25:29.306Z,94867.00
2023-05-19T08:26:29.379Z,94865.00
2023-05-19T08:27:29.408Z,94861.00
2023-05-19T08:28:29.530Z,94863.00
2023-05-19T08:29:29.560Z,94859.00
2023-05-19T08:30:29.592Z,94859.00
2023-05-19T08:31:29.672Z,94857.00
2023-05-19T08:32:29.719Z,94857.00
2023-05-19T08:33:29.750Z,94857.00
2023-05-19T08:34:29.803Z,94855.00
2023-05-19T08:35:29.860Z,94853.00
2023-05-19T08:36:29.909Z,94853.00
2023-05-19T08:37:31.484Z,94851.00
2023-05-19T08:38:29.970Z,94851.00
2023-05-19T08:39:29.964Z,94853.00
2023-05-19T08:40:29.951Z,94851.00
2023-05-19T08:41:29.949Z,94851.00
2023-05-19T08:42:29.948Z,94853.00
2023-05-19T08:43:29.927Z,94851.00
2023-05-19T08:44:29.920Z,94851.00
2023-05-19T08:45:30.061Z,94851.00
2023-05-19T08:46:29.933Z,94849.00
2023-05-19T08:47:29.972Z,94849.00
2023-05-19T08:48:29.890Z,94847.00
2023-05-19T08:49:29.887Z,94845.00
2023-05-19T08:50:29.957Z,94843.00
2023-05-19T08:51:29.877Z,94847.00
2023-05-19T08:52:29.884Z,94843.00
2023-05-19T08:53:33.905Z,94843.00
2023-05-19T08:54:29.843Z,94837.00
2023-05-19T08:55:29.910Z,94835.00
2023-05-19T08:56:29.824Z,94829.00
2023-05-19T08:57:29.836Z,94827.00
2023-05-19T08:58:29.822Z,94825.00
2023-05-19T08:59:29.804Z,94825.00
2023-05-19T09:00:29.867Z,94821.00
2023-05-19T09:01:29.884Z,94821.00
2023-05-19T09:02:29.819Z,94825.00
2023-05-19T09:03:29.857Z,94823.00
2023-05-19T09:04:30.331Z,94823.00
2023-05-19T09:05:29.812Z,94825.00
2023-05-19T09:06:29.759Z,94823.00
2023-05-19T09:07:29.805Z,94825.00
2023-05-19T09:08:29.842Z,94823.00
2023-05-19T09:09:29.880Z,94819.00
2023-05-19T09:10:29.921Z,94817.00
2023-05-19T09:11:29.952Z,94814.00
2023-05-19T09:12:30.010Z,94814.00
2023-05-19T09:13:30.054Z,94812.00
2023-05-19T09:14:30.069Z,94814.00
2023-05-19T09:15:30.195Z,94812.00
2023-05-19T09:16:30.451Z,94812.00
2023-05-19T09:17:30.195Z,94810.00
2023-05-19T09:18:30.204Z,94808.00
2023-05-19T09:19:30.337Z,94808.00
2023-05-19T09:20:30.296Z,94806.00
2023-05-19T09:21:30.310Z,94810.00
2023-05-19T09:22:30.345Z,94804.00
2023-05-19T09:23:30.380Z,94804.00
2023-05-19T09:24:30.416Z,94804.00
2023-05-19T09:25:30.515Z,94800.00
2023-05-19T09:26:30.501Z,94798.00
2023-05-19T09:27:30.547Z,94796.00
2023-05-19T09:28:30.603Z,94796.00
2023-05-19T09:29:30.613Z,94796.00
2023-05-19T09:30:30.659Z,94794.00
2023-05-19T09:31:30.732Z,94794.00
2023-05-19T09:32:30.844Z,94792.00
2023-05-19T09:33:30.787Z,94790.00
2023-05-19T09:34:30.822Z,94790.00
2023-05-19T09:35:30.990Z,94784.00
2023-05-19T09:36:30.899Z,94782.00
2023-05-19T09:37:30.946Z,94784.00
2023-05-19T09:38:30.984Z,94784.00
2023-05-19T09:39:31.006Z,94784.00
2023-05-19T09:40:31.032Z,94784.00
2023-05-19T09:41:31.079Z,94782.00
2023-05-19T09:42:31.108Z,94778.00
2023-05-19T09:43:31.139Z,94776.00
2023-05-19T09:44:31.205Z,94774.00
2023-05-19T09:45:31.429Z,94776.00
2023-05-19T09:46:31.352Z,94776.00
2023-05-19T09:47:31.352Z,94774.00
2023-05-19T09:48:31.446Z,94774.00
2023-05-19T09:49:31.413Z,94769.00
2023-05-19T09:50:31.394Z,94770.00
2023-05-19T09:51:31.420Z,94769.00
2023-05-19T09:52:31.467Z,94765.00
2023-05-19T09:53:31.496Z,94763.00
2023-05-19T09:54:31.523Z,94761.00
2023-05-19T09:55:31.681Z,94763.00
2023-05-19T09:56:31.582Z,94761.00
2023-05-19T09:57:31.616Z,94761.00
2023-05-19T09:58:31.647Z,94763.00
2023-05-19T09:59:33.853Z,94761.00
2023-05-19T10:00:31.843Z,94753.00
2023-05-19T10:01:31.818Z,94753.00
2023-05-19T10:02:31.792Z,94749.00
2023-05-19T10:03:31.779Z,94749.00
2023-05-19T10:04:31.981Z,94747.00
2023-05-19T10:05:32.069Z,94747.00
2023-05-19T10:06:31.899Z,94747.00
2023-05-19T10:07:31.909Z,94745.00
2023-05-19T10:08:32.027Z,94741.00
2023-05-19T10:09:31.983Z,94739.00
2023-05-19T10:10:32.001Z,94735.00
2023-05-19T10:11:32.050Z,94737.00
2023-05-19T10:12:32.098Z,94733.00
2023-05-19T10:13:32.102Z,94733.00
2023-05-19T10:14:32.151Z,94729.00
2023-05-19T10:15:34.466Z,94729.00
2023-05-19T10:16:32.201Z,94727.00
2023-05-19T10:17:32.270Z,94727.00
2023-05-19T10:18:32.151Z,94729.00
2023-05-19T10:19:32.280Z,94727.00
2023-05-19T10:20:32.363Z,94727.00
2023-05-19T10:21:32.147Z,94727.00
2023-05-19T10:22:32.149Z,94731.00
2023-05-19T10:23:32.136Z,94727.00
2023-05-19T10:24:32.168Z,94727.00
2023-05-19T10:25:32.304Z,94727.00
2023-05-19T10:26:32.108Z,94725.00
2023-05-19T10:27:32.106Z,94723.00
2023-05-19T10:28:32.127Z,94722.00
2023-05-19T10:29:32.091Z,94714.00
2023-05-19T10:30:32.073Z,94714.00
2023-05-19T10:31:32.198Z,94714.00
2023-05-19T10:32:32.187Z,94712.00
2023-05-19T10:33:32.063Z,94708.00
2023-05-19T10:34:32.069Z,94708.00
2023-05-19T10:35:32.517Z,94704.00
2023-05-19T10:36:32.035Z,94704.00
2023-05-19T10:37:32.041Z,94702.00
2023-05-19T10:38:32.011Z,94700.00
2023-05-19T10:39:32.006Z,94700.00
2023-05-19T10:40:32.019Z,94700.00
2023-05-19T10:41:31.994Z,94696.00
2023-05-19T10:42:31.992Z,94698.00
2023-05-19T10:43:31.999Z,94694.00
2023-05-19T10:44:31.972Z,94696.00
2023-05-19T10:45:32.100Z,94698.00
2023-05-19T10:46:32.005Z,94696.00
2023-05-19T10:47:31.999Z,94696.00
2023-05-19T10:48:31.958Z,94696.00
2023-05-19T10:49:31.946Z,94696.00
2023-05-19T10:50:31.992Z,94694.00
2023-05-19T10:51:32.021Z,94694.00
2023-05-19T10:52:32.034Z,94696.00
2023-05-19T10:53:32.079Z,94696.00
2023-05-19T10:54:32.109Z,94692.00
2023-05-19T10:55:32.345Z,94690.00
2023-05-19T10:56:32.173Z,94688.00
2023-05-19T10:57:32.264Z,94686.00
2023-05-19T10:58:32.249Z,94688.00
2023-05-19T10:59:32.298Z,94686.00
2023-05-19T11:00:32.334Z,94684.00
2023-05-19T11:01:32.386Z,94684.00
2023-05-19T11:02:32.472Z,94682.00
2023-05-19T11:03:32.449Z,94678.00
2023-05-19T11:04:32.553Z,94678.00
2023-05-19T11:05:32.680Z,94680.00
2023-05-19T11:06:32.533Z,94680.00
2023-05-19T11:07:32.540Z,94678.00
2023-05-19T11:08:32.583Z,94680.00
2023-05-19T11:09:39.872Z,94680.00
2023-05-19T11:10:33.587Z,94678.00
2023-05-19T11:11:33.261Z,94678.00
2023-05-19T11:12:32.585Z,94675.00
2023-05-19T11:13:32.598Z,94676.00
2023-05-19T11:14:32.549Z,94675.00
2023-05-19T11:15:32.698Z,94673.00
2023-05-19T11:16:32.600Z,94671.00
2023-05-19T11:17:33.244Z,94671.00
2023-05-19T11:18:32.543Z,94667.00
2023-05-19T11:19:32.560Z,94667.00
2023-05-19T11:20:32.527Z,94665.00
2023-05-19T11:21:32.653Z,94663.00
2023-05-19T11:22:32.593Z,94661.00
2023-05-19T11:23:34.830Z,94661.00
2023-05-19T11:24:32.624Z,94657.00
2023-05-19T11:25:32.762Z,94657.00
2023-05-19T11:26:32.618Z,94653.00
2023-05-19T11:27:32.638Z,94651.00
2023-05-19T11:28:32.638Z,94651.00
2023-05-19T11:29:34.224Z,94649.00
2023-05-19T11:30:32.572Z,94649.00
2023-05-19T11:31:32.590Z,94651.00
2023-05-19T11:32:32.604Z,94651.00
2023-05-19T11:33:32.559Z,94647.00
2023-05-19T11:34:32.552Z,94647.00
2023-05-19T11:35:34.007Z,94645.00
2023-05-19T11:36:32.546Z,94647.00
2023-05-19T11:37:32.575Z,94641.00
2023-05-19T11:38:32.545Z,94639.00
2023-05-19T11:39:32.512Z,94641.00
2023-05-19T11:40:32.551Z,94637.00
2023-05-19T11:41:32.510Z,94629.00
2023-05-19T11:42:32.491Z,94627.00
2023-05-19T11:43:32.494Z,94623.00
2023-05-19T11:44:32.489Z,94622.00